Royalton, New York
Current Conditions -  °F | °C
As of 7:54 AM on Thursday 30 Oct 2014 (Local Time) from KBUF Reporting Station
Few Clouds Few Clouds  
Wind Chill:   Ceiling: Unl
Heat Index:   Visibility: 10mi
Dew Point:   Wind: 5mph
Humidity: 89%   Direction: 260°W
Pressure: 30.05"   Gusts: NA
Location:  43.1953°N, 78.4825°W
Report Text: KBUF 301154Z 26004KT 10SM FEW018 FEW031 03/02 A3005 RMK AO2 SLP181 T00330017 10067 20033 51015
Loading
Personal Weather Stations






























Interactive Weather Map
Tropical Storm Tracking
New forecast layout! Learn more

10-Day Weather Forecast

Advertisements
Track Severe Weather on mobile